sensor_id;sensor_type;location;lat;lon;timestamp;pressure;altitude;pressure_sealevel;temperature;humidity
56176;BME280;63065;51.082;17.016;2023-02-17T00:01:48;100796.84;;;7.66;38.05
56176;BME280;63065;51.082;17.016;2023-02-17T00:04:15;100791.11;;;7.72;38.06
56176;BME280;63065;51.082;17.016;2023-02-17T00:06:39;100787.96;;;7.80;37.84
56176;BME280;63065;51.082;17.016;2023-02-17T00:09:04;100789.53;;;7.81;38.23
56176;BME280;63065;51.082;17.016;2023-02-17T00:11:30;100791.23;;;7.85;38.19
56176;BME280;63065;51.082;17.016;2023-02-17T00:13:56;100789.41;;;7.70;38.31
56176;BME280;63065;51.082;17.016;2023-02-17T00:16:24;100789.90;;;8.24;38.16
56176;BME280;63065;51.082;17.016;2023-02-17T00:18:51;100793.59;;;8.11;37.75
56176;BME280;63065;51.082;17.016;2023-02-17T00:21:17;100796.84;;;8.11;37.68
56176;BME280;63065;51.082;17.016;2023-02-17T00:23:38;100796.57;;;8.15;37.82
56176;BME280;63065;51.082;17.016;2023-02-17T00:26:09;100802.43;;;8.47;37.78
56176;BME280;63065;51.082;17.016;2023-02-17T00:28:28;100800.86;;;8.22;37.66
56176;BME280;63065;51.082;17.016;2023-02-17T00:30:54;100798.02;;;8.26;37.99
56176;BME280;63065;51.082;17.016;2023-02-17T00:33:20;100795.81;;;8.32;37.88
56176;BME280;63065;51.082;17.016;2023-02-17T00:35:45;100789.62;;;8.16;37.95
56176;BME280;63065;51.082;17.016;2023-02-17T00:38:11;100789.88;;;8.22;37.94
56176;BME280;63065;51.082;17.016;2023-02-17T00:40:36;100789.81;;;8.51;37.93
56176;BME280;63065;51.082;17.016;2023-02-17T00:43:01;100791.43;;;8.55;37.95
56176;BME280;63065;51.082;17.016;2023-02-17T00:45:27;100791.45;;;8.60;38.05
56176;BME280;63065;51.082;17.016;2023-02-17T00:47:52;100783.92;;;8.38;38.08
56176;BME280;63065;51.082;17.016;2023-02-17T00:50:18;100783.31;;;8.43;37.94
56176;BME280;63065;51.082;17.016;2023-02-17T00:52:44;100780.10;;;8.50;38.05
56176;BME280;63065;51.082;17.016;2023-02-17T00:55:09;100778.96;;;8.78;38.08
56176;BME280;63065;51.082;17.016;2023-02-17T00:57:35;100777.92;;;8.60;38.18
56176;BME280;63065;51.082;17.016;2023-02-17T01:00:00;100775.88;;;8.62;38.09
56176;BME280;63065;51.082;17.016;2023-02-17T01:02:25;100774.18;;;8.73;38.03
56176;BME280;63065;51.082;17.016;2023-02-17T01:04:51;100772.82;;;8.68;38.18
56176;BME280;63065;51.082;17.016;2023-02-17T01:07:16;100774.05;;;8.65;38.12
56176;BME280;63065;51.082;17.016;2023-02-17T01:09:42;100771.28;;;8.70;38.06
56176;BME280;63065;51.082;17.016;2023-02-17T01:12:10;100762.57;;;8.71;38.18
56176;BME280;63065;51.082;17.016;2023-02-17T01:14:33;100759.34;;;8.79;38.10
56176;BME280;63065;51.082;17.016;2023-02-17T01:16:58;100763.56;;;9.08;37.79
56176;BME280;63065;51.082;17.016;2023-02-17T01:19:24;100761.74;;;8.93;37.86
56176;BME280;63065;51.082;17.016;2023-02-17T01:21:50;100759.42;;;8.90;37.86
56176;BME280;63065;51.082;17.016;2023-02-17T01:24:15;100760.99;;;8.83;38.05
56176;BME280;63065;51.082;17.016;2023-02-17T01:26:41;100758.63;;;8.84;38.11
56176;BME280;63065;51.082;17.016;2023-02-17T01:29:07;100755.32;;;8.84;38.01
56176;BME280;63065;51.082;17.016;2023-02-17T01:31:31;100750.58;;;8.84;38.33
56176;BME280;63065;51.082;17.016;2023-02-17T01:33:58;100749.22;;;8.91;38.19
56176;BME280;63065;51.082;17.016;2023-02-17T01:36:23;100746.97;;;8.91;38.12
56176;BME280;63065;51.082;17.016;2023-02-17T01:38:48;100743.32;;;8.95;38.14
56176;BME280;63065;51.082;17.016;2023-02-17T01:41:15;100744.93;;;9.03;38.11
56176;BME280;63065;51.082;17.016;2023-02-17T01:43:38;100747.77;;;9.12;37.98
56176;BME280;63065;51.082;17.016;2023-02-17T01:46:05;100743.36;;;8.93;37.98
56176;BME280;63065;51.082;17.016;2023-02-17T01:48:33;100741.79;;;8.73;37.77
56176;BME280;63065;51.082;17.016;2023-02-17T01:50:57;100735.68;;;9.23;37.82
56176;BME280;63065;51.082;17.016;2023-02-17T01:53:23;100728.59;;;9.28;37.79
56176;BME280;63065;51.082;17.016;2023-02-17T01:55:45;100725.47;;;9.09;37.72
56176;BME280;63065;51.082;17.016;2023-02-17T01:58:12;100721.80;;;9.10;37.79
56176;BME280;63065;51.082;17.016;2023-02-17T02:00:36;100718.31;;;9.16;37.72
56176;BME280;63065;51.082;17.016;2023-02-17T02:03:03;100713.93;;;8.92;37.57
56176;BME280;63065;51.082;17.016;2023-02-17T02:05:27;100712.08;;;9.24;37.68
56176;BME280;63065;51.082;17.016;2023-02-17T02:07:53;100707.82;;;9.49;37.67
56176;BME280;63065;51.082;17.016;2023-02-17T02:10:18;100704.71;;;9.05;37.66
56176;BME280;63065;51.082;17.016;2023-02-17T02:12:43;100700.90;;;9.54;37.50
56176;BME280;63065;51.082;17.016;2023-02-17T02:15:12;100696.97;;;9.08;37.46
56176;BME280;63065;51.082;17.016;2023-02-17T02:17:41;100690.64;;;9.36;37.42
56176;BME280;63065;51.082;17.016;2023-02-17T02:22:39;100690.13;;;9.47;37.51
56176;BME280;63065;51.082;17.016;2023-02-17T02:24:58;100684.67;;;9.27;37.55
56176;BME280;63065;51.082;17.016;2023-02-17T02:27:25;100678.72;;;9.16;37.48
56176;BME280;63065;51.082;17.016;2023-02-17T02:29:56;100674.19;;;9.49;37.42
56176;BME280;63065;51.082;17.016;2023-02-17T02:34:37;100661.99;;;9.33;37.32
56176;BME280;63065;51.082;17.016;2023-02-17T02:37:01;100658.68;;;9.45;37.18
56176;BME280;63065;51.082;17.016;2023-02-17T02:39:26;100658.23;;;9.53;37.06
56176;BME280;63065;51.082;17.016;2023-02-17T02:41:52;100656.87;;;9.52;37.10
56176;BME280;63065;51.082;17.016;2023-02-17T02:44:21;100654.09;;;9.62;36.98
56176;BME280;63065;51.082;17.016;2023-02-17T02:46:40;100648.45;;;9.73;36.89
56176;BME280;63065;51.082;17.016;2023-02-17T02:49:06;100647.13;;;9.71;36.99
56176;BME280;63065;51.082;17.016;2023-02-17T02:51:40;100638.94;;;9.76;36.90
56176;BME280;63065;51.082;17.016;2023-02-17T02:56:33;100638.84;;;9.76;36.93
56176;BME280;63065;51.082;17.016;2023-02-17T02:58:51;100639.58;;;9.88;36.92
56176;BME280;63065;51.082;17.016;2023-02-17T03:01:17;100637.50;;;9.95;36.97
56176;BME280;63065;51.082;17.016;2023-02-17T03:03:42;100636.67;;;9.91;36.99
56176;BME280;63065;51.082;17.016;2023-02-17T03:06:07;100633.93;;;9.96;36.97
56176;BME280;63065;51.082;17.016;2023-02-17T03:08:33;100627.89;;;9.72;37.00
56176;BME280;63065;51.082;17.016;2023-02-17T03:10:54;100628.74;;;9.96;36.98
56176;BME280;63065;51.082;17.016;2023-02-17T03:13:20;100632.27;;;10.03;36.93
56176;BME280;63065;51.082;17.016;2023-02-17T03:15:46;100631.45;;;10.06;37.05
56176;BME280;63065;51.082;17.016;2023-02-17T03:18:10;100624.80;;;10.10;37.01
56176;BME280;63065;51.082;17.016;2023-02-17T03:20:38;100621.53;;;10.11;37.01
56176;BME280;63065;51.082;17.016;2023-02-17T03:23:03;100621.52;;;9.89;37.05
56176;BME280;63065;51.082;17.016;2023-02-17T03:25:27;100622.46;;;10.19;36.92
56176;BME280;63065;51.082;17.016;2023-02-17T03:27:53;100626.06;;;10.23;36.96
56176;BME280;63065;51.082;17.016;2023-02-17T03:30:18;100626.02;;;10.30;36.90
56176;BME280;63065;51.082;17.016;2023-02-17T03:32:44;100625.52;;;10.32;36.86
56176;BME280;63065;51.082;17.016;2023-02-17T03:35:09;100628.26;;;10.30;36.99
56176;BME280;63065;51.082;17.016;2023-02-17T03:37:35;100629.01;;;10.28;37.08
56176;BME280;63065;51.082;17.016;2023-02-17T03:40:00;100631.71;;;10.02;37.41
56176;BME280;63065;51.082;17.016;2023-02-17T03:42:25;100624.77;;;9.78;37.32
56176;BME280;63065;51.082;17.016;2023-02-17T03:44:51;100619.73;;;10.23;37.18
56176;BME280;63065;51.082;17.016;2023-02-17T03:47:16;100621.67;;;9.97;37.28
56176;BME280;63065;51.082;17.016;2023-02-17T03:49:41;100624.67;;;10.24;37.13
56176;BME280;63065;51.082;17.016;2023-02-17T03:52:06;100625.55;;;10.19;37.18
56176;BME280;63065;51.082;17.016;2023-02-17T03:54:31;100623.84;;;10.18;37.31
56176;BME280;63065;51.082;17.016;2023-02-17T03:56:57;100622.83;;;10.05;37.36
56176;BME280;63065;51.082;17.016;2023-02-17T03:59:22;100618.94;;;10.05;37.43
56176;BME280;63065;51.082;17.016;2023-02-17T04:01:48;100615.04;;;9.97;37.51
56176;BME280;63065;51.082;17.016;2023-02-17T04:04:13;100614.00;;;9.90;37.61
56176;BME280;63065;51.082;17.016;2023-02-17T04:06:38;100613.08;;;9.81;37.76
56176;BME280;63065;51.082;17.016;2023-02-17T04:09:03;100609.93;;;9.71;37.82
56176;BME280;63065;51.082;17.016;2023-02-17T04:11:29;100611.59;;;9.70;37.85
56176;BME280;63065;51.082;17.016;2023-02-17T04:13:54;100614.03;;;9.67;37.80
56176;BME280;63065;51.082;17.016;2023-02-17T04:16:20;100611.85;;;9.86;37.77
56176;BME280;63065;51.082;17.016;2023-02-17T04:18:45;100612.98;;;9.46;37.96
56176;BME280;63065;51.082;17.016;2023-02-17T04:21:10;100610.96;;;9.62;37.88
56176;BME280;63065;51.082;17.016;2023-02-17T04:23:36;100611.73;;;9.23;38.32
56176;BME280;63065;51.082;17.016;2023-02-17T04:26:01;100608.20;;;9.23;38.34
56176;BME280;63065;51.082;17.016;2023-02-17T04:28:26;100606.45;;;9.43;38.37
56176;BME280;63065;51.082;17.016;2023-02-17T04:30:52;100598.83;;;9.66;38.48
56176;BME280;63065;51.082;17.016;2023-02-17T04:33:17;100591.11;;;9.67;38.41
56176;BME280;63065;51.082;17.016;2023-02-17T04:35:42;100586.53;;;9.16;38.80
56176;BME280;63065;51.082;17.016;2023-02-17T04:38:08;100583.93;;;9.60;39.00
56176;BME280;63065;51.082;17.016;2023-02-17T04:40:33;100575.07;;;9.22;38.95
56176;BME280;63065;51.082;17.016;2023-02-17T04:42:58;100577.47;;;9.24;39.24
56176;BME280;63065;51.082;17.016;2023-02-17T04:45:23;100575.96;;;9.75;39.11
56176;BME280;63065;51.082;17.016;2023-02-17T04:47:48;100576.20;;;9.55;39.11
56176;BME280;63065;51.082;17.016;2023-02-17T04:50:14;100573.51;;;9.65;38.83
56176;BME280;63065;51.082;17.016;2023-02-17T04:52:39;100572.19;;;9.58;39.17
56176;BME280;63065;51.082;17.016;2023-02-17T04:55:05;100570.57;;;9.32;39.32
56176;BME280;63065;51.082;17.016;2023-02-17T04:57:30;100571.40;;;9.59;39.40
56176;BME280;63065;51.082;17.016;2023-02-17T04:59:56;100571.57;;;9.88;39.17
56176;BME280;63065;51.082;17.016;2023-02-17T05:02:21;100565.58;;;9.49;39.44
56176;BME280;63065;51.082;17.016;2023-02-17T05:04:47;100566.61;;;9.49;39.58
56176;BME280;63065;51.082;17.016;2023-02-17T05:07:12;100558.43;;;9.89;39.45
56176;BME280;63065;51.082;17.016;2023-02-17T05:09:37;100558.99;;;9.72;39.35
56176;BME280;63065;51.082;17.016;2023-02-17T05:12:03;100552.06;;;9.73;39.33
56176;BME280;63065;51.082;17.016;2023-02-17T05:14:29;100551.04;;;9.77;39.33
56176;BME280;63065;51.082;17.016;2023-02-17T05:16:54;100554.51;;;9.87;39.19
56176;BME280;63065;51.082;17.016;2023-02-17T05:19:19;100555.26;;;9.92;39.03
56176;BME280;63065;51.082;17.016;2023-02-17T05:21:45;100553.22;;;9.91;39.08
56176;BME280;63065;51.082;17.016;2023-02-17T05:24:11;100553.28;;;9.90;38.99
56176;BME280;63065;51.082;17.016;2023-02-17T05:26:36;100550.93;;;9.94;38.98
56176;BME280;63065;51.082;17.016;2023-02-17T05:29:02;100549.82;;;9.88;39.17
56176;BME280;63065;51.082;17.016;2023-02-17T05:31:27;100549.29;;;9.96;39.20
56176;BME280;63065;51.082;17.016;2023-02-17T05:33:52;100544.53;;;9.97;39.22
56176;BME280;63065;51.082;17.016;2023-02-17T05:36:17;100541.20;;;10.10;39.08
56176;BME280;63065;51.082;17.016;2023-02-17T05:38:42;100538.65;;;10.03;39.25
56176;BME280;63065;51.082;17.016;2023-02-17T05:41:08;100536.78;;;10.11;39.25
56176;BME280;63065;51.082;17.016;2023-02-17T05:43:33;100538.26;;;10.03;39.05
56176;BME280;63065;51.082;17.016;2023-02-17T05:46:01;100537.96;;;9.96;39.28
56176;BME280;63065;51.082;17.016;2023-02-17T05:48:24;100531.93;;;10.28;39.23
56176;BME280;63065;51.082;17.016;2023-02-17T05:50:50;100527.18;;;10.34;39.10
56176;BME280;63065;51.082;17.016;2023-02-17T05:53:15;100521.07;;;10.29;39.11
56176;BME280;63065;51.082;17.016;2023-02-17T05:55:40;100523.24;;;10.41;39.03
56176;BME280;63065;51.082;17.016;2023-02-17T05:58:06;100527.35;;;10.43;39.01
56176;BME280;63065;51.082;17.016;2023-02-17T06:00:31;100529.87;;;10.50;38.97
56176;BME280;63065;51.082;17.016;2023-02-17T06:02:56;100526.96;;;10.25;39.04
56176;BME280;63065;51.082;17.016;2023-02-17T06:05:22;100527.98;;;10.05;39.29
56176;BME280;63065;51.082;17.016;2023-02-17T06:07:47;100528.50;;;10.23;39.43
56176;BME280;63065;51.082;17.016;2023-02-17T06:10:12;100532.96;;;10.46;39.68
56176;BME280;63065;51.082;17.016;2023-02-17T06:12:38;100537.14;;;10.56;40.01
56176;BME280;63065;51.082;17.016;2023-02-17T06:15:04;100538.27;;;10.35;40.15
56176;BME280;63065;51.082;17.016;2023-02-17T06:17:29;100540.29;;;10.40;40.40
56176;BME280;63065;51.082;17.016;2023-02-17T06:19:55;100543.18;;;10.29;40.50
56176;BME280;63065;51.082;17.016;2023-02-17T06:22:20;100540.63;;;10.37;40.67
56176;BME280;63065;51.082;17.016;2023-02-17T06:24:46;100536.57;;;10.35;40.78
56176;BME280;63065;51.082;17.016;2023-02-17T06:27:11;100539.22;;;10.64;40.74
56176;BME280;63065;51.082;17.016;2023-02-17T06:29:37;100541.29;;;10.72;41.09
56176;BME280;63065;51.082;17.016;2023-02-17T06:32:03;100537.84;;;10.75;41.09
56176;BME280;63065;51.082;17.016;2023-02-17T06:34:27;100540.88;;;10.45;41.38
56176;BME280;63065;51.082;17.016;2023-02-17T06:36:53;100537.22;;;10.63;41.84
56176;BME280;63065;51.082;17.016;2023-02-17T06:39:19;100534.03;;;10.45;41.78
56176;BME280;63065;51.082;17.016;2023-02-17T06:41:44;100534.91;;;10.37;41.95
56176;BME280;63065;51.082;17.016;2023-02-17T06:44:09;100530.25;;;10.60;41.89
56176;BME280;63065;51.082;17.016;2023-02-17T06:46:35;100529.80;;;10.17;41.82
56176;BME280;63065;51.082;17.016;2023-02-17T06:49:00;100529.41;;;10.50;42.19
56176;BME280;63065;51.082;17.016;2023-02-17T06:51:30;100530.97;;;10.75;41.85
56176;BME280;63065;51.082;17.016;2023-02-17T06:53:51;100526.11;;;10.73;42.02
56176;BME280;63065;51.082;17.016;2023-02-17T06:56:17;100521.66;;;10.82;42.11
56176;BME280;63065;51.082;17.016;2023-02-17T06:58:42;100519.73;;;10.66;41.94
56176;BME280;63065;51.082;17.016;2023-02-17T07:01:15;100517.75;;;10.48;41.89
56176;BME280;63065;51.082;17.016;2023-02-17T07:03:33;100523.10;;;10.79;41.93
56176;BME280;63065;51.082;17.016;2023-02-17T07:05:59;100523.47;;;10.81;41.95
56176;BME280;63065;51.082;17.016;2023-02-17T07:08:24;100523.46;;;10.47;41.78
56176;BME280;63065;51.082;17.016;2023-02-17T07:10:50;100523.79;;;10.67;41.77
56176;BME280;63065;51.082;17.016;2023-02-17T07:13:15;100523.94;;;10.75;41.82
56176;BME280;63065;51.082;17.016;2023-02-17T07:15:41;100524.63;;;10.67;41.89
56176;BME280;63065;51.082;17.016;2023-02-17T07:18:06;100530.59;;;10.96;41.95
56176;BME280;63065;51.082;17.016;2023-02-17T07:20:32;100528.26;;;10.54;41.89
56176;BME280;63065;51.082;17.016;2023-02-17T07:22:58;100522.53;;;10.94;41.97
56176;BME280;63065;51.082;17.016;2023-02-17T07:25:23;100522.46;;;10.79;41.94
56176;BME280;63065;51.082;17.016;2023-02-17T07:27:49;100518.73;;;10.81;41.96
56176;BME280;63065;51.082;17.016;2023-02-17T07:30:16;100514.10;;;10.71;41.63
56176;BME280;63065;51.082;17.016;2023-02-17T07:32:41;100510.31;;;10.95;41.87
56176;BME280;63065;51.082;17.016;2023-02-17T07:35:06;100509.06;;;10.85;41.86
56176;BME280;63065;51.082;17.016;2023-02-17T07:37:31;100507.49;;;10.66;41.85
56176;BME280;63065;51.082;17.016;2023-02-17T07:39:57;100504.83;;;11.07;41.74
56176;BME280;63065;51.082;17.016;2023-02-17T07:42:22;100499.59;;;10.93;41.61
56176;BME280;63065;51.082;17.016;2023-02-17T07:44:48;100500.22;;;11.01;41.63
56176;BME280;63065;51.082;17.016;2023-02-17T07:47:13;100496.77;;;11.06;41.80
56176;BME280;63065;51.082;17.016;2023-02-17T07:49:39;100496.36;;;11.10;41.45
56176;BME280;63065;51.082;17.016;2023-02-17T07:52:04;100493.83;;;11.19;41.52
56176;BME280;63065;51.082;17.016;2023-02-17T07:54:30;100494.26;;;11.25;41.47
56176;BME280;63065;51.082;17.016;2023-02-17T07:56:55;100492.42;;;11.35;41.38
56176;BME280;63065;51.082;17.016;2023-02-17T07:59:21;100488.08;;;11.35;41.41
56176;BME280;63065;51.082;17.016;2023-02-17T08:01:46;100491.18;;;11.38;41.36
56176;BME280;63065;51.082;17.016;2023-02-17T08:04:12;100492.74;;;11.40;41.32
56176;BME280;63065;51.082;17.016;2023-02-17T08:06:38;100493.02;;;11.43;41.24
56176;BME280;63065;51.082;17.016;2023-02-17T08:09:02;100489.47;;;11.13;40.97
56176;BME280;63065;51.082;17.016;2023-02-17T08:11:29;100485.25;;;11.32;41.05
56176;BME280;63065;51.082;17.016;2023-02-17T08:13:53;100486.19;;;11.45;41.21
56176;BME280;63065;51.082;17.016;2023-02-17T08:16:18;100483.85;;;11.32;41.12
56176;BME280;63065;51.082;17.016;2023-02-17T08:18:43;100484.93;;;11.12;40.77
56176;BME280;63065;51.082;17.016;2023-02-17T08:21:09;100479.24;;;11.55;41.20
56176;BME280;63065;51.082;17.016;2023-02-17T08:23:34;100473.83;;;11.71;40.99
56176;BME280;63065;51.082;17.016;2023-02-17T08:26:00;100472.27;;;11.34;40.95
56176;BME280;63065;51.082;17.016;2023-02-17T08:28:26;100474.79;;;11.45;40.59
56176;BME280;63065;51.082;17.016;2023-02-17T08:30:51;100479.25;;;11.53;40.63
56176;BME280;63065;51.082;17.016;2023-02-17T08:33:17;100482.22;;;11.72;40.17
56176;BME280;63065;51.082;17.016;2023-02-17T08:35:43;100482.71;;;11.97;40.40
56176;BME280;63065;51.082;17.016;2023-02-17T08:38:08;100481.17;;;11.82;40.63
56176;BME280;63065;51.082;17.016;2023-02-17T08:40:33;100480.20;;;11.66;40.23
56176;BME280;63065;51.082;17.016;2023-02-17T08:42:59;100482.59;;;11.82;40.34
56176;BME280;63065;51.082;17.016;2023-02-17T08:45:24;100478.93;;;12.01;40.03
56176;BME280;63065;51.082;17.016;2023-02-17T08:47:50;100476.28;;;12.16;40.33
56176;BME280;63065;51.082;17.016;2023-02-17T08:50:16;100472.62;;;11.98;40.24
56176;BME280;63065;51.082;17.016;2023-02-17T08:52:40;100464.68;;;11.56;40.91
56176;BME280;63065;51.082;17.016;2023-02-17T08:55:11;100467.22;;;11.96;41.17
56176;BME280;63065;51.082;17.016;2023-02-17T08:57:32;100464.60;;;11.81;40.80
56176;BME280;63065;51.082;17.016;2023-02-17T08:59:57;100456.02;;;12.22;40.89
56176;BME280;63065;51.082;17.016;2023-02-17T09:02:22;100457.27;;;12.15;40.71
56176;BME280;63065;51.082;17.016;2023-02-17T09:04:47;100463.58;;;12.32;40.70
56176;BME280;63065;51.082;17.016;2023-02-17T09:07:13;100464.39;;;12.50;40.81
56176;BME280;63065;51.082;17.016;2023-02-17T09:09:38;100457.62;;;12.59;40.42
56176;BME280;63065;51.082;17.016;2023-02-17T09:12:04;100460.57;;;12.40;40.30
56176;BME280;63065;51.082;17.016;2023-02-17T09:14:29;100459.99;;;12.72;40.49
56176;BME280;63065;51.082;17.016;2023-02-17T09:16:55;100459.78;;;12.64;40.09
56176;BME280;63065;51.082;17.016;2023-02-17T09:19:21;100461.77;;;12.54;39.68
56176;BME280;63065;51.082;17.016;2023-02-17T09:21:45;100463.79;;;12.64;39.95
56176;BME280;63065;51.082;17.016;2023-02-17T09:24:11;100465.71;;;12.44;39.94
56176;BME280;63065;51.082;17.016;2023-02-17T09:26:36;100464.95;;;12.56;39.58
56176;BME280;63065;51.082;17.016;2023-02-17T09:29:03;100461.01;;;12.85;39.92
56176;BME280;63065;51.082;17.016;2023-02-17T09:31:28;100458.52;;;12.92;39.81
56176;BME280;63065;51.082;17.016;2023-02-17T09:33:52;100457.41;;;12.94;39.52
56176;BME280;63065;51.082;17.016;2023-02-17T09:36:19;100454.92;;;12.59;39.30
56176;BME280;63065;51.082;17.016;2023-02-17T09:38:43;100451.33;;;12.73;39.46
56176;BME280;63065;51.082;17.016;2023-02-17T09:41:15;100453.41;;;12.80;39.37
56176;BME280;63065;51.082;17.016;2023-02-17T09:43:34;100450.72;;;12.31;40.30
56176;BME280;63065;51.082;17.016;2023-02-17T09:46:04;100445.35;;;12.55;40.19
56176;BME280;63065;51.082;17.016;2023-02-17T09:48:27;100443.82;;;12.06;40.49
56176;BME280;63065;51.082;17.016;2023-02-17T09:50:54;100439.24;;;12.34;40.19
56176;BME280;63065;51.082;17.016;2023-02-17T09:53:19;100439.60;;;12.46;39.90
56176;BME280;63065;51.082;17.016;2023-02-17T09:55:45;100437.40;;;12.54;39.80
56176;BME280;63065;51.082;17.016;2023-02-17T09:58:09;100434.57;;;12.31;39.73
56176;BME280;63065;51.082;17.016;2023-02-17T10:00:34;100433.04;;;12.13;40.05
56176;BME280;63065;51.082;17.016;2023-02-17T10:02:59;100429.68;;;12.25;39.32
56176;BME280;63065;51.082;17.016;2023-02-17T10:05:25;100425.81;;;12.56;39.31
56176;BME280;63065;51.082;17.016;2023-02-17T10:07:52;100423.87;;;12.55;39.23
56176;BME280;63065;51.082;17.016;2023-02-17T10:10:17;100424.51;;;12.23;39.48
56176;BME280;63065;51.082;17.016;2023-02-17T10:12:42;100419.30;;;12.69;39.06
56176;BME280;63065;51.082;17.016;2023-02-17T10:15:07;100419.35;;;12.48;39.35
56176;BME280;63065;51.082;17.016;2023-02-17T10:17:33;100411.59;;;12.03;39.44
56176;BME280;63065;51.082;17.016;2023-02-17T10:19:59;100409.37;;;12.49;39.41
56176;BME280;63065;51.082;17.016;2023-02-17T10:22:22;100404.59;;;12.29;39.63
56176;BME280;63065;51.082;17.016;2023-02-17T10:24:46;100399.35;;;12.51;39.38
56176;BME280;63065;51.082;17.016;2023-02-17T10:27:23;100397.66;;;12.51;39.26
56176;BME280;63065;51.082;17.016;2023-02-17T10:29:44;100395.37;;;12.69;39.43
56176;BME280;63065;51.082;17.016;2023-02-17T10:32:13;100387.39;;;12.98;38.94
56176;BME280;63065;51.082;17.016;2023-02-17T10:34:33;100383.41;;;12.70;38.89
56176;BME280;63065;51.082;17.016;2023-02-17T10:36:58;100378.41;;;13.01;38.66
56176;BME280;63065;51.082;17.016;2023-02-17T10:39:32;100370.68;;;12.83;39.07
56176;BME280;63065;51.082;17.016;2023-02-17T10:41:47;100379.08;;;13.13;38.73
56176;BME280;63065;51.082;17.016;2023-02-17T10:44:13;100375.44;;;12.99;38.66
56176;BME280;63065;51.082;17.016;2023-02-17T10:46:35;100373.62;;;13.05;38.39
56176;BME280;63065;51.082;17.016;2023-02-17T10:49:01;100373.66;;;13.10;38.43
56176;BME280;63065;51.082;17.016;2023-02-17T10:51:29;100370.96;;;13.24;38.56
56176;BME280;63065;51.082;17.016;2023-02-17T10:53:56;100365.46;;;13.28;38.46
56176;BME280;63065;51.082;17.016;2023-02-17T10:56:22;100355.31;;;13.10;38.38
56176;BME280;63065;51.082;17.016;2023-02-17T10:58:49;100349.78;;;13.32;38.20
56176;BME280;63065;51.082;17.016;2023-02-17T11:01:09;100340.05;;;12.77;38.85
56176;BME280;63065;51.082;17.016;2023-02-17T11:03:35;100334.51;;;13.02;39.09
56176;BME280;63065;51.082;17.016;2023-02-17T11:06:01;100332.33;;;13.07;39.27
56176;BME280;63065;51.082;17.016;2023-02-17T11:08:31;100324.98;;;13.19;39.02
56176;BME280;63065;51.082;17.016;2023-02-17T11:10:58;100319.41;;;13.37;39.24
56176;BME280;63065;51.082;17.016;2023-02-17T11:13:27;100313.74;;;13.43;39.03
56176;BME280;63065;51.082;17.016;2023-02-17T11:15:44;100309.85;;;13.68;38.53
56176;BME280;63065;51.082;17.016;2023-02-17T11:18:10;100303.69;;;13.39;38.95
56176;BME280;63065;51.082;17.016;2023-02-17T11:20:33;100301.28;;;13.55;38.93
56176;BME280;63065;51.082;17.016;2023-02-17T11:23:04;100299.50;;;13.49;39.13
56176;BME280;63065;51.082;17.016;2023-02-17T11:25:24;100296.55;;;13.62;39.15
56176;BME280;63065;51.082;17.016;2023-02-17T11:27:50;100295.76;;;13.64;39.40
56176;BME280;63065;51.082;17.016;2023-02-17T11:30:15;100289.38;;;13.94;39.28
56176;BME280;63065;51.082;17.016;2023-02-17T11:32:39;100280.32;;;13.32;39.79
56176;BME280;63065;51.082;17.016;2023-02-17T11:37:29;100276.80;;;14.11;39.31
56176;BME280;63065;51.082;17.016;2023-02-17T11:39:55;100268.69;;;13.92;39.63
56176;BME280;63065;51.082;17.016;2023-02-17T11:42:21;100262.98;;;14.13;39.42
56176;BME280;63065;51.082;17.016;2023-02-17T11:44:46;100256.22;;;14.11;39.22
56176;BME280;63065;51.082;17.016;2023-02-17T11:47:19;100248.79;;;14.39;38.48
56176;BME280;63065;51.082;17.016;2023-02-17T11:49:49;100244.84;;;13.81;39.35
56176;BME280;63065;51.082;17.016;2023-02-17T11:52:12;100238.45;;;14.10;39.36
56176;BME280;63065;51.082;17.016;2023-02-17T11:54:34;100230.89;;;14.01;39.21
56176;BME280;63065;51.082;17.016;2023-02-17T11:57:02;100229.43;;;14.00;39.18
56176;BME280;63065;51.082;17.016;2023-02-17T11:59:30;100223.90;;;14.37;39.03
56176;BME280;63065;51.082;17.016;2023-02-17T12:01:57;100212.59;;;13.79;39.23
56176;BME280;63065;51.082;17.016;2023-02-17T12:04:21;100207.34;;;14.38;39.56
56176;BME280;63065;51.082;17.016;2023-02-17T12:06:42;100200.30;;;14.27;38.89
56176;BME280;63065;51.082;17.016;2023-02-17T12:09:14;100191.21;;;14.12;39.00
56176;BME280;63065;51.082;17.016;2023-02-17T12:11:31;100190.87;;;14.09;39.54
56176;BME280;63065;51.082;17.016;2023-02-17T12:14:00;100186.50;;;14.26;39.90
56176;BME280;63065;51.082;17.016;2023-02-17T12:16:26;100176.60;;;14.15;39.17
56176;BME280;63065;51.082;17.016;2023-02-17T12:18:51;100173.80;;;14.65;38.75
56176;BME280;63065;51.082;17.016;2023-02-17T12:21:13;100175.04;;;14.65;38.40
56176;BME280;63065;51.082;17.016;2023-02-17T12:23:48;100171.43;;;14.81;38.03
56176;BME280;63065;51.082;17.016;2023-02-17T12:26:04;100171.22;;;14.72;37.63
56176;BME280;63065;51.082;17.016;2023-02-17T12:28:34;100167.62;;;14.51;38.12
56176;BME280;63065;51.082;17.016;2023-02-17T12:30:57;100162.50;;;14.41;38.32
56176;BME280;63065;51.082;17.016;2023-02-17T12:33:28;100157.87;;;13.58;38.73
56176;BME280;63065;51.082;17.016;2023-02-17T12:35:46;100154.05;;;14.08;38.80
56176;BME280;63065;51.082;17.016;2023-02-17T12:38:11;100153.08;;;13.44;38.95
56176;BME280;63065;51.082;17.016;2023-02-17T12:40:36;100150.49;;;13.73;39.24
56176;BME280;63065;51.082;17.016;2023-02-17T12:43:02;100150.62;;;13.68;39.11